Time,TemperatureF,DewpointF,PressureIn,WindDirection,WindDirectionDegrees,WindSpeedMPH,WindSpeedGustMPH,Humidity,HourlyPrecipIn,Conditions,Clouds,dailyrainin,SoftwareType,DateUTC
2013-02-27 00:01:00,6.0,1.0,-100.00,NW,311,5.0,9.0,81,0.00,,,0.00,,2013-02-27 07:01:00,
2013-02-27 00:12:00,6.0,1.0,-100.00,NW,311,5.0,9.0,81,0.00,,,0.00,,2013-02-27 07:12:00,
2013-02-27 00:21:00,6.0,1.0,-100.00,NW,311,5.0,9.0,81,0.00,,,0.00,,2013-02-27 07:21:00,
2013-02-27 00:52:00,6.0,1.0,-100.00,WNW,286,4.0,7.0,81,0.00,,,0.00,,2013-02-27 07:52:00,
2013-02-27 01:01:00,6.0,1.0,-100.00,WNW,286,4.0,7.0,81,0.00,,,0.00,,2013-02-27 08:01:00,
2013-02-27 01:11:00,6.0,1.0,-100.00,WNW,286,4.0,7.0,81,0.00,,,0.00,,2013-02-27 08:11:00,
2013-02-27 01:21:00,6.0,1.0,-100.00,WNW,286,4.0,7.0,81,0.00,,,0.00,,2013-02-27 08:21:00,
2013-02-27 01:53:00,5.0,0.0,-100.00,WNW,290,4.0,6.0,80,0.00,,,0.00,,2013-02-27 08:53:00,
2013-02-27 02:02:00,5.0,0.0,-100.00,WNW,290,4.0,6.0,80,0.00,,,0.00,,2013-02-27 09:02:00,
2013-02-27 02:12:00,5.0,0.0,-100.00,WNW,290,4.0,6.0,80,0.00,,,0.00,,2013-02-27 09:12:00,
2013-02-27 02:22:00,5.0,0.0,-100.00,WNW,290,4.0,6.0,80,0.00,,,0.00,,2013-02-27 09:22:00,
2013-02-27 02:52:00,4.0,-1.0,-100.00,WNW,286,2.0,5.0,80,0.00,,,0.00,,2013-02-27 09:52:00,
2013-02-27 03:01:00,4.0,-1.0,-100.00,WNW,286,2.0,5.0,80,0.00,,,0.00,,2013-02-27 10:01:00,
2013-02-27 03:12:00,4.0,-1.0,-100.00,WNW,286,2.0,5.0,80,0.00,,,0.00,,2013-02-27 10:12:00,
2013-02-27 03:21:00,4.0,-1.0,-100.00,WNW,286,2.0,5.0,80,0.00,,,0.00,,2013-02-27 10:21:00,
2013-02-27 03:53:00,4.0,-1.0,-100.00,West,260,1.0,2.0,80,0.00,,,0.00,,2013-02-27 10:53:00,
2013-02-27 04:02:00,4.0,-1.0,-100.00,West,260,1.0,2.0,80,0.00,,,0.00,,2013-02-27 11:02:00,
2013-02-27 04:12:00,4.0,-1.0,-100.00,West,260,1.0,2.0,80,0.00,,,0.00,,2013-02-27 11:12:00,
2013-02-27 04:22:00,4.0,-1.0,-100.00,West,260,1.0,2.0,80,0.00,,,0.00,,2013-02-27 11:22:00,
2013-02-27 04:52:00,4.0,-1.0,-100.00,NW,310,1.0,3.0,80,0.00,,,0.00,,2013-02-27 11:52:00,
2013-02-27 05:02:00,4.0,-1.0,-100.00,NW,310,1.0,3.0,80,0.00,,,0.00,,2013-02-27 12:02:00,
2013-02-27 05:13:00,4.0,-1.0,-100.00,NW,310,1.0,3.0,80,0.00,,,0.00,,2013-02-27 12:13:00,
2013-02-27 05:22:00,4.0,-1.0,-100.00,NW,310,1.0,3.0,80,0.00,,,0.00,,2013-02-27 12:22:00,
2013-02-27 05:53:00,4.0,-1.0,-100.00,NW,322,1.0,4.0,80,0.00,,,0.00,,2013-02-27 12:53:00,
2013-02-27 06:02:00,4.0,-1.0,-100.00,NW,322,1.0,4.0,80,0.00,,,0.00,,2013-02-27 13:02:00,
2013-02-27 06:11:00,4.0,-1.0,-100.00,NW,322,1.0,4.0,80,0.00,,,0.00,,2013-02-27 13:11:00,
2013-02-27 06:22:00,4.0,-1.0,-100.00,NW,322,1.0,4.0,80,0.00,,,0.00,,2013-02-27 13:22:00,
2013-02-27 06:52:00,3.0,-2.0,-100.00,WNW,285,0.0,2.0,79,0.00,,,0.00,,2013-02-27 13:52:00,
2013-02-27 07:02:00,3.0,-2.0,-100.00,WNW,285,0.0,2.0,79,0.00,,,0.00,,2013-02-27 14:02:00,
2013-02-27 07:12:00,3.0,-2.0,-100.00,WNW,285,0.0,2.0,79,0.00,,,0.00,,2013-02-27 14:12:00,
2013-02-27 07:22:00,3.0,-2.0,-100.00,WNW,285,0.0,2.0,79,0.00,,,0.00,,2013-02-27 14:22:00,
2013-02-27 07:52:00,3.0,-2.0,-100.00,WNW,287,2.0,4.0,79,0.00,,,0.00,,2013-02-27 14:52:00,
2013-02-27 08:02:00,3.0,-2.0,-100.00,WNW,287,2.0,4.0,79,0.00,,,0.00,,2013-02-27 15:02:00,
2013-02-27 08:12:00,3.0,-2.0,-100.00,WNW,287,2.0,4.0,79,0.00,,,0.00,,2013-02-27 15:12:00,
2013-02-27 08:22:00,3.0,-2.0,-100.00,WNW,287,2.0,4.0,79,0.00,,,0.00,,2013-02-27 15:22:00,
2013-02-27 08:52:00,10.0,5.0,-100.00,WSW,258,2.0,3.0,78,0.00,,,0.00,,2013-02-27 15:52:00,
2013-02-27 09:02:00,10.0,5.0,-100.00,WSW,258,2.0,3.0,78,0.00,,,0.00,,2013-02-27 16:02:00,
2013-02-27 09:12:00,10.0,5.0,-100.00,WSW,258,2.0,3.0,78,0.00,,,0.00,,2013-02-27 16:12:00,
2013-02-27 09:22:00,10.0,5.0,-100.00,WSW,258,2.0,3.0,78,0.00,,,0.00,,2013-02-27 16:22:00,
2013-02-27 09:52:00,17.0,11.0,-100.00,WNW,284,1.0,4.0,78,0.00,,,0.00,,2013-02-27 16:52:00,
2013-02-27 10:21:00,17.0,11.0,-100.00,WNW,284,1.0,4.0,78,0.00,,,0.00,,2013-02-27 17:21:00,
2013-02-27 10:52:00,20.0,13.0,-100.00,WSW,245,2.0,5.0,73,0.03,,,0.03,,2013-02-27 17:52:00,
2013-02-27 11:02:00,20.0,13.0,-100.00,WSW,245,2.0,5.0,73,0.03,,,0.03,,2013-02-27 18:02:00,
2013-02-27 11:11:00,20.0,13.0,-100.00,WSW,245,2.0,5.0,73,0.03,,,0.03,,2013-02-27 18:11:00,
2013-02-27 11:22:00,20.0,13.0,-100.00,WSW,245,2.0,5.0,73,0.03,,,0.03,,2013-02-27 18:22:00,
2013-02-27 11:52:00,18.0,9.0,-100.00,West,277,6.0,11.0,68,0.07,,,0.10,,2013-02-27 18:52:00,
2013-02-27 12:01:00,18.0,9.0,-100.00,West,277,6.0,11.0,68,0.07,,,0.10,,2013-02-27 19:01:00,
2013-02-27 12:12:00,18.0,9.0,-100.00,West,277,6.0,11.0,68,0.07,,,0.10,,2013-02-27 19:12:00,
2013-02-27 12:21:00,18.0,9.0,-100.00,West,277,6.0,11.0,68,0.07,,,0.10,,2013-02-27 19:21:00,
2013-02-27 12:52:00,16.0,7.0,-100.00,West,277,8.0,13.0,67,0.01,,,0.11,,2013-02-27 19:52:00,
2013-02-27 13:01:00,16.0,7.0,-100.00,West,277,8.0,13.0,67,0.01,,,0.11,,2013-02-27 20:01:00,
2013-02-27 13:12:00,16.0,7.0,-100.00,West,277,8.0,13.0,67,0.01,,,0.11,,2013-02-27 20:12:00,
2013-02-27 13:21:00,16.0,7.0,-100.00,West,277,8.0,13.0,67,0.01,,,0.11,,2013-02-27 20:21:00,
2013-02-27 14:52:00,13.0,1.0,-100.00,WNW,303,12.0,19.0,58,-99.99,,,0.11,,2013-02-27 21:52:00,
2013-02-27 15:01:00,13.0,1.0,-100.00,WNW,303,12.0,19.0,58,-99.99,,,0.11,,2013-02-27 22:01:00,
2013-02-27 15:11:00,13.0,1.0,-100.00,WNW,303,12.0,19.0,58,-99.99,,,0.11,,2013-02-27 22:11:00,
2013-02-27 15:21:00,13.0,1.0,-100.00,WNW,303,12.0,19.0,58,-99.99,,,0.11,,2013-02-27 22:21:00,
2013-02-27 15:52:00,14.0,3.0,-100.00,West,270,9.0,19.0,61,0.00,,,0.11,,2013-02-27 22:52:00,
2013-02-27 16:01:00,14.0,3.0,-100.00,West,270,9.0,19.0,61,0.00,,,0.11,,2013-02-27 23:01:00,
2013-02-27 16:11:00,14.0,3.0,-100.00,West,270,9.0,19.0,61,0.00,,,0.11,,2013-02-27 23:11:00,
2013-02-27 16:21:00,14.0,3.0,-100.00,West,270,9.0,19.0,61,0.00,,,0.11,,2013-02-27 23:21:00,
2013-02-27 16:53:00,14.0,4.0,-100.00,West,275,5.0,15.0,63,0.00,,,0.11,,2013-02-27 23:53:00,
2013-02-27 17:02:00,14.0,4.0,-100.00,West,275,5.0,15.0,63,0.00,,,0.11,,2013-02-28 00:02:00,
2013-02-27 17:12:00,14.0,4.0,-100.00,West,275,5.0,15.0,63,0.00,,,0.11,,2013-02-28 00:12:00,
2013-02-27 17:21:00,14.0,4.0,-100.00,West,275,5.0,15.0,63,0.00,,,0.11,,2013-02-28 00:21:00,
2013-02-27 17:52:00,10.0,1.0,-100.00,West,261,8.0,13.0,65,0.00,,,0.11,,2013-02-28 00:52:00,
2013-02-27 18:01:00,10.0,1.0,-100.00,West,261,8.0,13.0,65,0.00,,,0.11,,2013-02-28 01:01:00,
2013-02-27 18:11:00,10.0,1.0,-100.00,West,261,8.0,13.0,65,0.00,,,0.11,,2013-02-28 01:11:00,
2013-02-27 18:21:00,10.0,1.0,-100.00,West,261,8.0,13.0,65,0.00,,,0.11,,2013-02-28 01:21:00,
2013-02-27 18:52:00,5.0,-3.0,-100.00,WNW,292,8.0,14.0,68,0.00,,,0.11,,2013-02-28 01:52:00,
2013-02-27 19:01:00,5.0,-3.0,-100.00,WNW,292,8.0,14.0,68,0.00,,,0.11,,2013-02-28 02:01:00,
2013-02-27 19:11:00,5.0,-3.0,-100.00,WNW,292,8.0,14.0,68,0.00,,,0.11,,2013-02-28 02:11:00,
2013-02-27 19:22:00,5.0,-3.0,-100.00,WNW,292,8.0,14.0,68,0.00,,,0.11,,2013-02-28 02:22:00,
2013-02-27 20:01:00,4.0,-2.0,-100.00,WNW,294,6.0,11.0,74,0.00,,,0.11,,2013-02-28 03:01:00,
2013-02-27 20:11:00,4.0,-2.0,-100.00,WNW,294,6.0,11.0,74,0.00,,,0.11,,2013-02-28 03:11:00,
2013-02-27 20:21:00,4.0,-2.0,-100.00,WNW,294,6.0,11.0,74,0.00,,,0.11,,2013-02-28 03:21:00,
2013-02-27 20:52:00,3.0,-4.0,-100.00,WSW,252,5.0,8.0,71,0.00,,,0.11,,2013-02-28 03:52:00,
2013-02-27 21:02:00,3.0,-4.0,-100.00,WSW,252,5.0,8.0,71,0.00,,,0.11,,2013-02-28 04:02:00,
2013-02-27 21:11:00,3.0,-4.0,-100.00,WSW,252,5.0,8.0,71,0.00,,,0.11,,2013-02-28 04:11:00,
2013-02-27 21:21:00,3.0,-4.0,-100.00,WSW,252,5.0,8.0,71,0.00,,,0.11,,2013-02-28 04:21:00,
2013-02-27 21:52:00,3.0,-5.0,-100.00,SW,214,3.0,9.0,69,0.00,,,0.11,,2013-02-28 04:52:00,
2013-02-27 22:01:00,3.0,-5.0,-100.00,SW,214,3.0,9.0,69,0.00,,,0.11,,2013-02-28 05:01:00,
2013-02-27 22:11:00,3.0,-5.0,-100.00,SW,214,3.0,9.0,69,0.00,,,0.11,,2013-02-28 05:11:00,
2013-02-27 22:22:00,3.0,-5.0,-100.00,SW,214,3.0,9.0,69,0.00,,,0.11,,2013-02-28 05:22:00,
2013-02-27 22:52:00,3.0,-6.0,-100.00,SW,226,2.0,5.0,66,0.00,,,0.11,,2013-02-28 05:52:00,
2013-02-27 23:01:00,3.0,-6.0,-100.00,SW,226,2.0,5.0,66,0.00,,,0.11,,2013-02-28 06:01:00,
2013-02-27 23:11:00,3.0,-6.0,-100.00,SW,226,2.0,5.0,66,0.00,,,0.11,,2013-02-28 06:11:00,
2013-02-27 23:22:00,3.0,-6.0,-100.00,SW,226,2.0,5.0,66,0.00,,,0.11,,2013-02-28 06:22:00,
2013-02-27 23:52:00,3.0,-5.0,-100.00,SSW,213,3.0,4.0,67,0.00,,,0.11,,2013-02-28 06:52:00,